Time;durP1;ratioP1;P1;durP2;ratioP2;P2;SDS_P1;SDS_P2;PMS_P1;PMS_P2;Temp;Humidity;BMP_temperature;BMP_pressure;BME280_temperature;BME280_humidity;BME280_pressure;Samples;Min_cycle;Max_cycle;Signal;HPM_P1;HPM_P2
2023/03/25 00:00:17;;;;;;;4.73;2.40;;;10.10;99.90;;;;;;4957434;28;20362;-75
2023/03/25 00:02:48;;;;;;;4.77;2.57;;;10.20;99.90;;;;;;4956596;28;20682;-74
2023/03/25 00:05:16;;;;;;;6.10;2.40;;;10.10;99.90;;;;;;4955043;28;20214;-74
2023/03/25 00:07:43;;;;;;;3.90;1.77;;;10.20;99.90;;;;;;4956704;28;20621;-74
2023/03/25 00:10:11;;;;;;;4.20;2.10;;;10.20;99.90;;;;;;4959899;28;20186;-75
2023/03/25 00:12:37;;;;;;;6.13;2.33;;;10.20;99.90;;;;;;4960984;28;20324;-75
2023/03/25 00:15:04;;;;;;;5.50;2.00;;;10.20;99.90;;;;;;4951459;28;20229;-75
2023/03/25 00:17:30;;;;;;;3.60;2.13;;;10.20;99.90;;;;;;4953215;28;20641;-74
2023/03/25 00:19:59;;;;;;;3.43;2.00;;;10.20;99.90;;;;;;4959861;28;20206;-74
2023/03/25 00:22:25;;;;;;;3.60;2.20;;;10.10;99.90;;;;;;4960940;28;20175;-75
2023/03/25 00:24:51;;;;;;;4.47;2.10;;;10.00;99.90;;;;;;4960301;28;20236;-75
2023/03/25 00:27:17;;;;;;;4.23;2.10;;;10.00;99.90;;;;;;4961545;28;20277;-75
2023/03/25 00:29:44;;;;;;;4.47;2.20;;;10.00;99.90;;;;;;4958013;28;20213;-74
2023/03/25 00:32:11;;;;;;;5.67;2.00;;;10.00;99.90;;;;;;4951709;28;20618;-75
2023/03/25 00:34:46;;;;;;;2.73;1.60;;;9.90;99.90;;;;;;4954387;28;20186;-75
2023/03/25 00:37:16;;;;;;;3.10;1.70;;;10.00;99.90;;;;;;4960783;28;20605;-75
2023/03/25 00:39:45;;;;;;;5.37;2.03;;;9.90;99.90;;;;;;4952488;28;20225;-74
2023/03/25 00:42:12;;;;;;;4.80;1.87;;;9.90;99.90;;;;;;4960368;28;20238;-75
2023/03/25 00:44:38;;;;;;;3.20;2.13;;;9.80;99.90;;;;;;4961966;28;20588;-75
2023/03/25 00:47:04;;;;;;;4.10;2.13;;;9.80;99.90;;;;;;4958436;28;20697;-73
2023/03/25 00:49:30;;;;;;;4.43;1.73;;;9.80;99.90;;;;;;4978253;28;20182;-75
2023/03/25 00:51:55;;;;;;;3.50;2.00;;;9.80;99.90;;;;;;4959376;28;20183;-75
2023/03/25 00:54:22;;;;;;;3.77;1.80;;;9.80;99.90;;;;;;4961296;28;20221;-76
2023/03/25 00:56:49;;;;;;;3.77;1.80;;;9.80;99.90;;;;;;4957127;28;20641;-76
2023/03/25 00:59:15;;;;;;;3.57;2.03;;;9.70;99.90;;;;;;4955266;28;20234;-76
2023/03/25 01:01:42;;;;;;;4.53;1.93;;;9.70;99.90;;;;;;4957359;28;20637;-75
2023/03/25 01:04:15;;;;;;;2.10;1.33;;;9.70;99.90;;;;;;4961751;28;20186;-75
2023/03/25 01:06:42;;;;;;;3.20;1.67;;;9.60;99.90;;;;;;4959617;28;20214;-75
2023/03/25 01:09:10;;;;;;;2.53;1.53;;;9.60;99.90;;;;;;4959493;28;20217;-76
2023/03/25 01:11:37;;;;;;;3.70;1.63;;;9.60;99.90;;;;;;4962405;28;20222;-75
2023/03/25 01:14:10;;;;;;;4.63;1.77;;;9.60;99.90;;;;;;4959423;28;20214;-75
2023/03/25 01:16:36;;;;;;;3.77;2.10;;;9.60;99.90;;;;;;4962381;28;20208;-75
2023/03/25 01:19:02;;;;;;;3.63;2.10;;;9.50;99.90;;;;;;4960925;28;20550;-75
2023/03/25 01:21:27;;;;;;;2.90;1.70;;;9.60;99.90;;;;;;4977076;28;20222;-75
2023/03/25 01:23:53;;;;;;;3.30;1.77;;;9.50;99.90;;;;;;4961157;28;20214;-75
2023/03/25 01:26:18;;;;;;;3.20;1.33;;;9.50;99.90;;;;;;4961476;28;20238;-75
2023/03/25 01:28:46;;;;;;;3.77;1.50;;;9.50;99.90;;;;;;4964757;28;20268;-75
2023/03/25 01:31:14;;;;;;;2.33;1.37;;;9.50;99.90;;;;;;4964633;28;20193;-76
2023/03/25 01:33:40;;;;;;;2.80;1.87;;;9.40;99.90;;;;;;4965399;28;20268;-75
2023/03/25 01:36:11;;;;;;;2.87;1.63;;;9.40;99.90;;;;;;4965146;28;20222;-75
2023/03/25 01:38:38;;;;;;;4.37;1.80;;;9.40;99.90;;;;;;4961660;28;20613;-75
2023/03/25 01:41:05;;;;;;;5.40;1.63;;;9.40;99.90;;;;;;4966000;28;20236;-75
2023/03/25 01:43:32;;;;;;;2.43;1.53;;;9.40;99.90;;;;;;4964324;28;20269;-75
2023/03/25 01:45:58;;;;;;;2.77;1.60;;;9.50;99.90;;;;;;4963759;28;20265;-75
2023/03/25 01:48:26;;;;;;;1.97;1.57;;;9.40;99.90;;;;;;4962540;28;20218;-75
2023/03/25 01:50:56;;;;;;;3.87;1.80;;;9.40;99.90;;;;;;4965290;28;20210;-75
2023/03/25 01:53:22;;;;;;;7.73;1.70;;;9.40;99.90;;;;;;4952482;28;20202;-75
2023/03/25 01:55:51;;;;;;;2.37;1.67;;;9.40;99.90;;;;;;4964678;28;20179;-75
2023/03/25 01:58:19;;;;;;;2.77;1.87;;;9.40;99.90;;;;;;4963397;28;20658;-75
2023/03/25 02:00:46;;;;;;;4.60;1.70;;;9.30;99.90;;;;;;4966013;28;20218;-75
2023/03/25 02:03:12;;;;;;;5.80;1.57;;;9.40;99.90;;;;;;4960340;28;20583;-75
2023/03/25 02:06:01;;;;;;;3.33;1.50;;;9.30;99.90;;;;;;4965828;28;20228;-75
2023/03/25 02:08:31;;;;;;;3.80;1.83;;;9.30;99.90;;;;;;4964034;28;20244;-74
2023/03/25 02:10:57;;;;;;;2.20;1.27;;;9.30;99.90;;;;;;4965818;28;20619;-74
2023/03/25 02:13:23;;;;;;;5.73;1.70;;;9.30;99.90;;;;;;4967977;28;20258;-74
2023/03/25 02:16:25;;;;;;;3.40;1.83;;;9.40;99.90;;;;;;4962468;28;20353;-75
2023/03/25 02:18:53;;;;;;;3.70;1.57;;;9.40;99.90;;;;;;4952393;29;20254;-74
2023/03/25 02:21:35;;;;;;;2.90;1.50;;;9.40;99.90;;;;;;4956408;28;20252;-73
2023/03/25 02:24:18;;;;;;;1.97;1.40;;;9.50;99.90;;;;;;4960105;28;20681;-74
2023/03/25 02:27:32;;;;;;;4.33;1.80;;;9.50;99.90;;;;;;4956738;28;20760;-75
2023/03/25 02:30:16;;;;;;;3.37;1.30;;;9.50;99.90;;;;;;4963465;28;20284;-74
2023/03/25 02:32:53;;;;;;;4.93;1.50;;;9.60;99.90;;;;;;4963993;28;20210;-76
2023/03/25 02:35:48;;;;;;;3.00;1.30;;;9.60;99.90;;;;;;4959589;28;20203;-74
2023/03/25 02:38:17;;;;;;;2.97;1.47;;;9.60;99.90;;;;;;4961028;28;20222;-73
2023/03/25 02:40:54;;;;;;;2.70;1.10;;;9.60;99.90;;;;;;4959497;28;20187;-74
2023/03/25 02:43:33;;;;;;;5.37;1.60;;;9.60;99.90;;;;;;4963141;28;20214;-74
2023/03/25 02:46:05;;;;;;;4.17;1.47;;;9.60;99.90;;;;;;4961898;28;20226;-74
2023/03/25 02:48:39;;;;;;;1.80;1.20;;;9.60;99.90;;;;;;4964788;28;20673;-74
2023/03/25 02:51:13;;;;;;;3.07;1.50;;;9.60;99.90;;;;;;4961046;28;20216;-74
2023/03/25 02:53:42;;;;;;;5.23;1.40;;;9.50;99.90;;;;;;4961504;28;20206;-74
2023/03/25 02:56:11;;;;;;;4.17;1.57;;;9.60;99.90;;;;;;4964382;28;20679;-74
2023/03/25 02:58:39;;;;;;;3.67;1.43;;;9.60;99.90;;;;;;4962934;28;20183;-73
2023/03/25 03:01:05;;;;;;;6.10;1.50;;;9.60;99.90;;;;;;4968694;28;20174;-74
2023/03/25 03:03:31;;;;;;;2.97;1.30;;;9.50;99.90;;;;;;4962704;28;20212;-74
2023/03/25 03:05:59;;;;;;;5.73;1.83;;;9.60;99.90;;;;;;4961478;28;20300;-74
2023/03/25 03:08:37;;;;;;;3.73;1.70;;;9.60;99.90;;;;;;4958558;28;20233;-74
2023/03/25 03:11:11;;;;;;;7.73;1.90;;;9.60;99.90;;;;;;4963561;28;20264;-75
2023/03/25 03:14:10;;;;;;;3.83;1.17;;;9.60;99.90;;;;;;4963196;28;20194;-74
2023/03/25 03:16:47;;;;;;;2.80;1.40;;;9.70;99.90;;;;;;4962767;28;20203;-74
2023/03/25 03:19:45;;;;;;;2.83;1.30;;;9.70;99.90;;;;;;4959275;28;20545;-72
2023/03/25 03:22:56;;;;;;;2.40;1.30;;;9.70;99.90;;;;;;4976387;28;20263;-75
2023/03/25 03:25:45;;;;;;;2.23;1.07;;;9.80;99.90;;;;;;4962277;28;20269;-74
2023/03/25 03:28:29;;;;;;;3.93;1.90;;;9.90;99.90;;;;;;4960021;28;20234;-74
2023/03/25 03:31:16;;;;;;;4.17;1.70;;;9.90;99.90;;;;;;4965394;28;20214;-74
2023/03/25 03:33:46;;;;;;;1.97;1.40;;;9.70;99.90;;;;;;4961176;28;20362;-74
2023/03/25 03:36:17;;;;;;;3.53;1.50;;;9.80;99.90;;;;;;4953291;28;20294;-74
2023/03/25 03:38:48;;;;;;;4.33;1.80;;;9.80;99.90;;;;;;4960783;28;20692;-74
2023/03/25 03:41:20;;;;;;;3.70;1.60;;;9.80;99.90;;;;;;4961297;28;20702;-74
2023/03/25 03:44:06;;;;;;;5.83;1.93;;;9.80;99.90;;;;;;4959873;28;20265;-74
2023/03/25 03:46:32;;;;;;;5.57;1.90;;;9.70;99.90;;;;;;4956867;28;20219;-74
2023/03/25 03:49:00;;;;;;;5.63;1.73;;;9.70;99.90;;;;;;4964242;28;20629;-76
2023/03/25 03:51:34;;;;;;;5.53;1.40;;;9.70;99.90;;;;;;4961199;28;20694;-73
2023/03/25 03:54:14;;;;;;;2.90;1.23;;;9.70;99.90;;;;;;4961730;28;20199;-74
2023/03/25 03:57:03;;;;;;;2.83;1.50;;;9.70;99.90;;;;;;4963306;28;20206;-75
2023/03/25 03:59:29;;;;;;;2.70;1.50;;;9.70;99.90;;;;;;4945830;28;20320;-74
2023/03/25 04:01:59;;;;;;;4.57;1.60;;;9.70;99.90;;;;;;4960617;28;20343;-76
2023/03/25 04:04:27;;;;;;;3.83;1.27;;;9.60;99.90;;;;;;4960573;28;20254;-75
2023/03/25 04:07:16;;;;;;;3.57;1.60;;;9.70;99.90;;;;;;4961879;28;20213;-77
2023/03/25 04:10:13;;;;;;;4.60;1.60;;;9.60;99.90;;;;;;4974583;28;20293;-76
2023/03/25 04:12:42;;;;;;;4.50;1.20;;;9.60;99.90;;;;;;4965215;28;20214;-76
2023/03/25 04:15:08;;;;;;;4.77;1.50;;;9.70;99.90;;;;;;4959962;28;20211;-76
2023/03/25 04:17:34;;;;;;;2.87;1.40;;;9.70;99.90;;;;;;4963829;28;20581;-76
2023/03/25 04:20:07;;;;;;;2.43;1.43;;;9.70;99.90;;;;;;4958907;28;20203;-76
2023/03/25 04:22:33;;;;;;;2.40;1.20;;;9.70;99.90;;;;;;4963063;28;20270;-75
2023/03/25 04:24:59;;;;;;;2.20;1.43;;;9.70;99.90;;;;;;4962642;28;20281;-75
2023/03/25 04:27:28;;;;;;;3.17;1.20;;;9.70;99.90;;;;;;4958916;28;20215;-75
2023/03/25 04:29:56;;;;;;;4.50;1.37;;;9.80;99.90;;;;;;4955695;28;20212;-76
2023/03/25 04:32:22;;;;;;;4.63;1.10;;;9.80;99.90;;;;;;4959310;28;20795;-75
2023/03/25 04:34:48;;;;;;;3.13;1.47;;;9.80;99.90;;;;;;4956125;28;20230;-76
2023/03/25 04:37:13;;;;;;;3.43;1.10;;;9.80;99.90;;;;;;4959054;28;20214;-76
2023/03/25 04:39:39;;;;;;;3.77;0.87;;;9.80;99.90;;;;;;4966133;28;20260;-76
2023/03/25 04:42:05;;;;;;;2.07;1.17;;;9.70;99.90;;;;;;4964134;28;20217;-75
2023/03/25 04:44:37;;;;;;;4.20;2.20;;;9.70;99.90;;;;;;4963708;28;20269;-76
2023/03/25 04:47:06;;;;;;;2.80;1.07;;;9.70;99.90;;;;;;4963941;28;20222;-75
2023/03/25 04:49:31;;;;;;;2.87;1.20;;;9.60;99.90;;;;;;4965434;28;20193;-76
2023/03/25 04:51:58;;;;;;;5.37;1.50;;;9.50;99.90;;;;;;4962156;28;20175;-76
2023/03/25 04:54:24;;;;;;;6.00;1.50;;;9.50;99.90;;;;;;4961872;28;20666;-75
2023/03/25 04:56:50;;;;;;;4.43;1.40;;;9.50;99.90;;;;;;4961567;28;20264;-76
2023/03/25 04:59:18;;;;;;;3.83;1.30;;;9.50;99.90;;;;;;4962297;28;20979;-76
2023/03/25 05:01:45;;;;;;;6.43;1.57;;;9.50;99.90;;;;;;4966139;28;20171;-76
2023/03/25 05:04:13;;;;;;;4.37;1.70;;;9.50;99.90;;;;;;4966446;28;20661;-76
2023/03/25 05:06:41;;;;;;;4.30;1.87;;;9.50;99.90;;;;;;4965416;28;20265;-76
2023/03/25 05:09:10;;;;;;;3.17;1.30;;;9.50;99.90;;;;;;4963194;28;20194;-76
2023/03/25 05:11:38;;;;;;;2.87;0.97;;;9.60;99.90;;;;;;4965762;28;20690;-77
2023/03/25 05:14:05;;;;;;;4.17;1.77;;;9.60;99.90;;;;;;4966183;28;20205;-76
2023/03/25 05:16:32;;;;;;;2.90;1.00;;;9.60;99.90;;;;;;4965289;28;20614;-76
2023/03/25 05:18:57;;;;;;;2.93;1.30;;;9.60;99.90;;;;;;4964926;28;20269;-76
2023/03/25 05:21:23;;;;;;;4.97;1.10;;;9.70;99.90;;;;;;4963961;28;20290;-76
2023/03/25 05:23:49;;;;;;;5.23;1.20;;;9.80;99.90;;;;;;4965850;28;20806;-76
2023/03/25 05:26:14;;;;;;;2.53;1.10;;;9.80;99.90;;;;;;4967426;28;20215;-76
2023/03/25 05:28:41;;;;;;;4.30;1.53;;;9.90;99.90;;;;;;4976658;28;20186;-75
2023/03/25 05:31:09;;;;;;;2.93;1.10;;;9.90;99.90;;;;;;4962778;28;20269;-73
2023/03/25 05:33:41;;;;;;;6.13;1.30;;;10.00;99.90;;;;;;4966163;28;20691;-75
2023/03/25 05:36:11;;;;;;;3.63;1.20;;;10.10;99.90;;;;;;4947901;28;20207;-72
2023/03/25 05:38:40;;;;;;;2.20;0.80;;;10.20;99.90;;;;;;4947332;28;20238;-76
2023/03/25 05:41:09;;;;;;;2.30;1.10;;;10.40;99.90;;;;;;4965026;28;20209;-73
2023/03/25 05:43:36;;;;;;;2.50;0.83;;;10.70;99.90;;;;;;4960019;28;20194;-75
2023/03/25 05:46:04;;;;;;;3.27;1.10;;;11.00;99.90;;;;;;4962285;28;20688;-75
2023/03/25 05:48:31;;;;;;;4.90;1.20;;;11.20;99.90;;;;;;4948719;28;20199;-75
2023/03/25 05:51:02;;;;;;;3.67;1.03;;;11.40;99.90;;;;;;4959465;28;20292;-76
2023/03/25 05:53:29;;;;;;;3.87;0.80;;;11.40;99.90;;;;;;4963066;28;20215;-76
2023/03/25 05:55:55;;;;;;;3.27;1.07;;;11.20;99.90;;;;;;4966469;28;20257;-76
2023/03/25 05:58:23;;;;;;;4.40;0.80;;;11.10;99.90;;;;;;4964638;28;20615;-76
2023/03/25 06:00:50;;;;;;;3.40;1.23;;;10.80;99.90;;;;;;4962902;28;20209;-76
2023/03/25 06:03:19;;;;;;;3.27;0.83;;;10.70;99.90;;;;;;4960286;28;20195;-75
2023/03/25 06:05:45;;;;;;;2.10;0.87;;;10.40;99.90;;;;;;4961478;28;20214;-76
2023/03/25 06:08:11;;;;;;;3.90;0.80;;;10.40;99.90;;;;;;4959563;28;20336;-76
2023/03/25 06:10:37;;;;;;;0.83;0.70;;;10.30;99.90;;;;;;4964814;28;20174;-75
2023/03/25 06:13:03;;;;;;;3.43;1.13;;;10.30;99.90;;;;;;4966211;28;20174;-75
2023/03/25 06:15:32;;;;;;;1.97;0.80;;;10.30;99.90;;;;;;4965311;28;20222;-75
2023/03/25 06:17:58;;;;;;;3.53;0.90;;;10.30;99.90;;;;;;4953688;28;20215;-75
2023/03/25 06:20:24;;;;;;;2.03;0.80;;;10.20;99.90;;;;;;4953439;28;20215;-75
2023/03/25 06:22:50;;;;;;;3.00;0.80;;;10.20;99.90;;;;;;4950359;28;20211;-75
2023/03/25 06:25:19;;;;;;;3.57;1.10;;;10.30;99.90;;;;;;4951650;28;20191;-75
2023/03/25 06:27:47;;;;;;;4.90;1.00;;;10.30;99.90;;;;;;4950039;28;20214;-75
2023/03/25 06:30:18;;;;;;;1.20;0.67;;;10.40;99.90;;;;;;4949874;28;20281;-75
2023/03/25 06:32:45;;;;;;;4.77;1.00;;;10.50;99.90;;;;;;4958819;28;20199;-76
2023/03/25 06:35:11;;;;;;;1.77;0.80;;;10.60;99.90;;;;;;4961990;28;20242;-74
2023/03/25 06:37:37;;;;;;;1.10;0.67;;;10.70;99.90;;;;;;4963644;28;20277;-75
2023/03/25 06:40:05;;;;;;;1.87;0.87;;;10.80;99.90;;;;;;4964581;28;20656;-75
2023/03/25 06:42:31;;;;;;;1.77;0.87;;;10.80;99.90;;;;;;4963501;28;20616;-74
2023/03/25 06:44:57;;;;;;;3.33;1.13;;;11.00;99.90;;;;;;4964942;28;20229;-74
2023/03/25 06:47:22;;;;;;;1.10;0.57;;;11.00;99.90;;;;;;4964496;28;20211;-74
2023/03/25 06:49:48;;;;;;;4.27;1.10;;;11.00;99.90;;;;;;4961552;28;20218;-74
2023/03/25 06:52:14;;;;;;;2.20;0.80;;;11.10;99.90;;;;;;4963859;28;20175;-74
2023/03/25 06:54:40;;;;;;;2.33;0.90;;;11.20;99.90;;;;;;4965244;28;20677;-74
2023/03/25 06:57:06;;;;;;;1.70;0.80;;;11.30;99.90;;;;;;4949943;28;20298;-74
2023/03/25 06:59:32;;;;;;;2.83;0.77;;;11.60;99.90;;;;;;4948187;28;20310;-75
2023/03/25 07:01:58;;;;;;;2.15;0.85;;;13.50;99.90;;;;;;4952580;28;20248;-74
2023/03/25 07:04:24;;;;;;;2.95;0.82;;;14.80;99.90;;;;;;4961417;28;20719;-74
2023/03/25 07:06:49;;;;;;;2.25;0.73;;;14.70;99.90;;;;;;4963874;28;20222;-75
2023/03/25 07:09:15;;;;;;;1.83;0.70;;;16.10;99.90;;;;;;4962798;28;20247;-75
2023/03/25 07:11:41;;;;;;;1.88;0.80;;;17.40;99.90;;;;;;4963226;28;20295;-75
2023/03/25 07:14:06;;;;;;;2.55;0.70;;;19.10;99.90;;;;;;4963390;28;20202;-76
2023/03/25 07:16:32;;;;;;;1.60;0.80;;;20.20;99.90;;;;;;4963262;28;20207;-75
2023/03/25 07:18:58;;;;;;;4.82;0.90;;;21.30;99.90;;;;;;4963034;28;20190;-75
2023/03/25 07:21:24;;;;;;;2.03;0.98;;;21.30;99.90;;;;;;4961040;28;20338;-76
2023/03/25 07:23:50;;;;;;;2.42;0.88;;;21.80;99.90;;;;;;4962960;28;20272;-75
2023/03/25 07:26:16;;;;;;;1.98;0.60;;;21.80;99.90;;;;;;4961046;28;20698;-75
2023/03/25 07:28:43;;;;;;;2.20;1.27;;;22.00;99.90;;;;;;4964821;28;20661;-75
2023/03/25 07:31:10;;;;;;;0.82;0.57;;;22.50;99.90;;;;;;4962371;28;20187;-72
2023/03/25 07:33:36;;;;;;;2.45;0.80;;;22.30;99.90;;;;;;4963161;28;20211;-73
2023/03/25 07:36:02;;;;;;;3.00;1.25;;;23.00;99.90;;;;;;4965254;28;20214;-74
2023/03/25 07:38:28;;;;;;;2.47;0.93;;;23.00;99.90;;;;;;4961673;28;20257;-74
2023/03/25 07:40:54;;;;;;;2.53;1.05;;;23.00;99.90;;;;;;4959630;28;20298;-74
2023/03/25 07:43:20;;;;;;;2.38;1.08;;;22.80;99.90;;;;;;4950322;28;20183;-74
2023/03/25 07:45:45;;;;;;;2.08;1.02;;;22.80;99.90;;;;;;4947589;28;20290;-74
2023/03/25 07:48:13;;;;;;;1.60;1.05;;;21.30;99.90;;;;;;4943372;28;20198;-73
2023/03/25 07:50:40;;;;;;;2.30;1.05;;;20.20;99.90;;;;;;4948262;28;20225;-73
2023/03/25 07:53:06;;;;;;;2.03;0.90;;;18.50;99.90;;;;;;4948045;28;20214;-72
2023/03/25 07:55:31;;;;;;;1.80;0.90;;;16.70;99.90;;;;;;4943696;28;20191;-76
2023/03/25 07:57:59;;;;;;;2.10;1.02;;;16.80;99.90;;;;;;4962977;28;20198;-75
2023/03/25 08:00:25;;;;;;;1.88;0.73;;;17.40;99.90;;;;;;4960848;28;20277;-74
2023/03/25 08:02:51;;;;;;;2.08;0.80;;;17.50;99.90;;;;;;4960086;28;20203;-75
2023/03/25 08:05:20;;;;;;;3.40;1.20;;;16.60;99.90;;;;;;4958784;28;20218;-74
2023/03/25 08:07:47;;;;;;;1.98;0.80;;;15.60;99.90;;;;;;4958569;28;20264;-74
2023/03/25 08:10:15;;;;;;;2.08;0.93;;;15.00;99.90;;;;;;4961457;28;20175;-73
2023/03/25 08:12:42;;;;;;;4.03;1.17;;;15.90;99.90;;;;;;4967434;28;20289;-75
2023/03/25 08:15:08;;;;;;;4.88;0.98;;;17.10;99.90;;;;;;4964610;28;20197;-72
2023/03/25 08:17:34;;;;;;;1.33;0.80;;;17.20;99.90;;;;;;4957365;28;20221;-73
2023/03/25 08:20:01;;;;;;;1.55;0.88;;;17.30;99.90;;;;;;4962351;28;20210;-73
2023/03/25 08:22:27;;;;;;;2.90;1.00;;;17.00;99.90;;;;;;4961930;28;20228;-74
2023/03/25 08:24:52;;;;;;;2.53;1.00;;;16.60;99.90;;;;;;4962340;28;20198;-72
2023/03/25 08:27:18;;;;;;;3.38;1.08;;;16.40;99.90;;;;;;4946945;28;20242;-73
2023/03/25 08:29:53;;;;;;;1.70;0.82;;;16.30;99.90;;;;;;4942369;28;20230;-74
2023/03/25 08:32:19;;;;;;;1.73;0.80;;;15.90;99.90;;;;;;4939030;28;20217;-73
2023/03/25 08:34:45;;;;;;;2.85;1.02;;;15.60;99.90;;;;;;4942747;28;20551;-75
2023/03/25 08:37:10;;;;;;;2.17;1.23;;;15.60;99.90;;;;;;4942807;28;20218;-76
2023/03/25 08:39:38;;;;;;;2.63;0.82;;;15.90;99.90;;;;;;4963263;28;20210;-76
2023/03/25 08:42:08;;;;;;;3.25;1.15;;;15.90;99.90;;;;;;4962125;28;20571;-75
2023/03/25 08:44:34;;;;;;;3.65;0.95;;;16.30;99.90;;;;;;4961244;28;20211;-74
2023/03/25 08:47:00;;;;;;;3.33;1.10;;;16.40;99.90;;;;;;4961595;28;20641;-73
2023/03/25 08:49:25;;;;;;;2.85;1.00;;;16.30;99.90;;;;;;4959901;28;20282;-74
2023/03/25 08:51:51;;;;;;;2.17;0.90;;;16.20;99.90;;;;;;4959786;28;20234;-74
2023/03/25 08:54:17;;;;;;;3.75;1.10;;;15.60;99.90;;;;;;4954006;28;20553;-74
2023/03/25 08:56:42;;;;;;;1.52;0.73;;;15.30;99.90;;;;;;4950185;28;20218;-74
2023/03/25 08:59:08;;;;;;;1.55;0.85;;;14.70;99.90;;;;;;4940211;28;20207;-74
2023/03/25 09:01:34;;;;;;;1.42;0.75;;;14.30;99.90;;;;;;4947310;28;20202;-75
2023/03/25 09:03:59;;;;;;;2.60;0.70;;;13.90;99.90;;;;;;4958923;28;20254;-74
2023/03/25 09:06:25;;;;;;;4.05;0.80;;;13.90;99.90;;;;;;4959513;28;20589;-75
2023/03/25 09:08:51;;;;;;;2.08;0.90;;;14.30;99.90;;;;;;4957794;28;20218;-74
2023/03/25 09:11:17;;;;;;;2.80;1.08;;;14.70;99.90;;;;;;4963647;28;20622;-75
2023/03/25 09:13:42;;;;;;;1.77;0.70;;;15.60;99.90;;;;;;4958963;28;20203;-75
2023/03/25 09:16:08;;;;;;;1.60;0.90;;;15.50;99.90;;;;;;4956769;28;20201;-73
2023/03/25 09:18:35;;;;;;;3.92;0.95;;;15.20;99.90;;;;;;4958748;28;20207;-73
2023/03/25 09:21:01;;;;;;;1.55;0.60;;;14.90;99.90;;;;;;4961248;28;20400;-74
2023/03/25 09:23:27;;;;;;;2.72;0.88;;;14.90;99.90;;;;;;4960144;28;20239;-77
2023/03/25 09:25:53;;;;;;;1.42;0.77;;;14.70;99.90;;;;;;4955610;28;20661;-74
2023/03/25 09:28:19;;;;;;;2.80;1.00;;;14.60;99.90;;;;;;4951273;28;20388;-74
2023/03/25 09:30:45;;;;;;;5.63;1.02;;;14.20;99.90;;;;;;4950197;28;20269;-74
2023/03/25 09:33:11;;;;;;;4.07;1.10;;;14.00;99.90;;;;;;4990778;23;20229;-78
2023/03/25 09:35:39;;;;;;;2.42;0.93;;;13.70;99.90;;;;;;4985842;28;20526;-79
2023/03/25 09:38:05;;;;;;;3.45;0.93;;;13.60;99.90;;;;;;4968529;28;20290;-78
2023/03/25 09:40:31;;;;;;;3.55;0.95;;;13.50;99.90;;;;;;4974171;28;20356;-78
2023/03/25 09:43:27;;;;;;;1.75;0.98;;;13.60;99.90;;;;;;4972205;28;20226;-78
2023/03/25 09:45:54;;;;;;;1.48;0.90;;;13.80;99.90;;;;;;4963882;28;20685;-81
2023/03/25 09:48:26;;;;;;;3.15;0.95;;;14.40;99.90;;;;;;4966895;28;20213;-79
2023/03/25 09:50:52;;;;;;;3.55;0.98;;;15.00;99.90;;;;;;4961545;28;20194;-80
2023/03/25 09:53:42;;;;;;;3.63;0.70;;;15.60;99.90;;;;;;4953042;28;20681;-79
2023/03/25 09:56:15;;;;;;;2.35;0.80;;;16.00;99.90;;;;;;4950999;28;20199;-78
2023/03/25 09:58:55;;;;;;;1.67;1.00;;;15.70;99.90;;;;;;4959221;28;20245;-78
2023/03/25 10:01:38;;;;;;;1.45;0.75;;;15.20;99.90;;;;;;4957213;28;20179;-78
2023/03/25 10:04:33;;;;;;;1.13;0.95;;;14.90;99.90;;;;;;4961822;28;20214;-78
2023/03/25 10:07:36;;;;;;;1.50;1.05;;;14.60;99.90;;;;;;4965240;28;20221;-78
2023/03/25 10:10:07;;;;;;;1.70;0.77;;;14.30;99.90;;;;;;4991160;28;20309;-79
2023/03/25 10:12:51;;;;;;;1.38;0.70;;;14.10;99.90;;;;;;4992456;28;20245;-78
2023/03/25 10:15:55;;;;;;;2.17;1.00;;;13.80;99.90;;;;;;4989223;28;20241;-78
2023/03/25 10:18:51;;;;;;;1.75;0.70;;;13.60;99.90;;;;;;4997249;28;20203;-77
2023/03/25 10:21:44;;;;;;;2.88;0.82;;;13.50;99.90;;;;;;4977376;28;20286;-77
2023/03/25 10:24:20;;;;;;;1.55;0.80;;;14.10;99.90;;;;;;4976546;28;20205;-78
2023/03/25 10:27:07;;;;;;;0.88;0.55;;;14.40;99.90;;;;;;4982630;28;20324;-78
2023/03/25 10:29:42;;;;;;;1.48;0.70;;;14.60;99.90;;;;;;4975396;28;20210;-76
2023/03/25 10:32:30;;;;;;;2.10;0.70;;;15.00;99.90;;;;;;4979771;28;20209;-78
2023/03/25 10:34:57;;;;;;;1.40;0.70;;;15.20;99.90;;;;;;4973063;28;20217;-77
2023/03/25 10:37:34;;;;;;;3.42;0.68;;;15.30;99.90;;;;;;4979094;28;20186;-78
2023/03/25 10:40:18;;;;;;;1.60;0.70;;;15.60;99.90;;;;;;4981998;28;20203;-78
2023/03/25 10:43:12;;;;;;;3.85;0.73;;;15.40;99.90;;;;;;4991302;28;20269;-78
2023/03/25 10:45:40;;;;;;;1.05;0.68;;;15.80;99.90;;;;;;4998359;28;20297;-78
2023/03/25 10:48:27;;;;;;;2.15;0.80;;;16.10;99.90;;;;;;4990060;28;20201;-78
2023/03/25 10:51:05;;;;;;;2.13;0.90;;;16.20;99.90;;;;;;4985943;28;20198;-77
2023/03/25 10:53:31;;;;;;;2.22;1.00;;;16.00;99.90;;;;;;4981193;28;20614;-77
2023/03/25 10:56:09;;;;;;;1.95;0.90;;;15.80;99.90;;;;;;4985117;28;20269;-77
2023/03/25 10:58:37;;;;;;;1.52;0.88;;;15.90;99.90;;;;;;4993104;28;20205;-77
2023/03/25 11:01:17;;;;;;;1.77;0.90;;;15.90;99.90;;;;;;4981086;28;20177;-76
2023/03/25 11:03:46;;;;;;;1.58;0.80;;;16.00;99.90;;;;;;4977297;28;20309;-77
2023/03/25 11:06:22;;;;;;;1.55;0.90;;;16.00;99.90;;;;;;4980080;28;20244;-77
2023/03/25 11:09:10;;;;;;;2.10;0.90;;;16.00;99.90;;;;;;4977725;28;20222;-77
2023/03/25 11:11:35;;;;;;;2.40;0.80;;;16.00;99.90;;;;;;4971279;28;20194;-77
2023/03/25 11:14:02;;;;;;;4.18;0.82;;;15.50;99.90;;;;;;4980479;28;20203;-77
2023/03/25 11:16:58;;;;;;;1.13;0.65;;;15.60;99.90;;;;;;4989886;28;20186;-77
2023/03/25 11:19:47;;;;;;;1.02;0.60;;;15.70;99.90;;;;;;4971279;28;20206;-77
2023/03/25 11:22:18;;;;;;;1.65;0.80;;;15.70;99.90;;;;;;4976605;28;20200;-77
2023/03/25 11:24:49;;;;;;;1.70;0.60;;;15.40;99.90;;;;;;4972840;28;20207;-77
2023/03/25 11:27:22;;;;;;;3.10;0.88;;;15.30;99.90;;;;;;4975685;28;20696;-77
2023/03/25 11:30:06;;;;;;;2.25;0.80;;;15.20;99.90;;;;;;4984089;28;20292;-77
2023/03/25 11:32:37;;;;;;;1.17;0.68;;;15.00;99.90;;;;;;4974000;28;20643;-78
2023/03/25 11:35:20;;;;;;;1.55;0.68;;;15.20;99.90;;;;;;4978802;28;20290;-77
2023/03/25 11:37:56;;;;;;;1.23;0.70;;;15.00;99.90;;;;;;4981298;28;20193;-78
2023/03/25 11:40:22;;;;;;;1.77;0.90;;;14.80;99.90;;;;;;4975303;28;20177;-77
2023/03/25 11:42:56;;;;;;;1.98;0.50;;;14.80;99.90;;;;;;4986506;28;20222;-77
2023/03/25 11:45:37;;;;;;;1.77;0.82;;;14.60;99.90;;;;;;4975107;28;20209;-77
2023/03/25 11:48:28;;;;;;;1.35;0.57;;;14.50;99.90;;;;;;4975076;28;20202;-77
2023/03/25 11:51:00;;;;;;;1.42;0.75;;;14.60;99.90;;;;;;4991846;28;20197;-77
2023/03/25 11:53:30;;;;;;;1.50;0.90;;;14.60;99.90;;;;;;4971073;28;20211;-77
2023/03/25 11:56:03;;;;;;;1.58;0.85;;;14.70;99.90;;;;;;4976711;28;20800;-76
2023/03/25 11:58:32;;;;;;;1.83;0.50;;;14.80;99.90;;;;;;4968919;28;20655;-75
2023/03/25 12:01:05;;;;;;;1.73;0.77;;;14.80;99.90;;;;;;4967795;28;20170;-76
2023/03/25 12:03:33;;;;;;;2.35;0.85;;;14.70;99.90;;;;;;4969603;28;20209;-77
2023/03/25 12:06:11;;;;;;;1.67;0.80;;;15.00;99.90;;;;;;4983131;28;20205;-76
2023/03/25 12:08:42;;;;;;;3.13;1.00;;;15.20;99.90;;;;;;4979968;28;20208;-76
2023/03/25 12:11:13;;;;;;;2.88;0.95;;;15.30;99.90;;;;;;4976892;28;20212;-76
2023/03/25 12:13:51;;;;;;;1.23;0.73;;;15.40;99.90;;;;;;4980741;28;20189;-77
2023/03/25 12:16:41;;;;;;;2.88;0.88;;;15.40;99.90;;;;;;4972703;28;20208;-77
2023/03/25 12:19:21;;;;;;;1.88;1.08;;;15.40;99.90;;;;;;4973329;28;20233;-77
2023/03/25 12:22:11;;;;;;;1.52;0.60;;;15.10;99.90;;;;;;4976505;28;20210;-77
2023/03/25 12:25:11;;;;;;;2.20;1.02;;;15.10;99.90;;;;;;4976816;28;20735;-77
2023/03/25 12:28:04;;;;;;;1.67;0.88;;;15.20;99.90;;;;;;4970229;28;20646;-77
2023/03/25 12:30:32;;;;;;;1.83;0.80;;;15.20;99.90;;;;;;4970507;28;20729;-76
2023/03/25 12:33:16;;;;;;;3.17;0.70;;;15.20;99.90;;;;;;4981418;28;20214;-76
2023/03/25 12:36:06;;;;;;;0.95;0.60;;;15.20;99.90;;;;;;4967653;28;20258;-77
2023/03/25 12:38:53;;;;;;;2.97;0.90;;;15.30;99.90;;;;;;4982008;28;20198;-76
2023/03/25 12:41:32;;;;;;;2.33;0.80;;;15.10;99.90;;;;;;4971818;28;20245;-77
2023/03/25 12:44:09;;;;;;;0.50;0.50;;;15.00;99.90;;;;;;4975262;28;20201;-77
2023/03/25 12:46:35;;;;;;;0.77;0.60;;;15.00;99.90;;;;;;4973817;28;20206;-77
2023/03/25 12:49:04;;;;;;;1.15;0.40;;;15.00;99.90;;;;;;4991366;28;20547;-78
2023/03/25 12:52:00;;;;;;;1.33;0.80;;;15.00;99.90;;;;;;4978502;28;20202;-77
2023/03/25 12:54:41;;;;;;;1.67;0.50;;;14.90;99.90;;;;;;4972920;28;20292;-77
2023/03/25 12:57:26;;;;;;;2.03;0.70;;;15.10;99.90;;;;;;4972388;28;20202;-77
2023/03/25 13:00:07;;;;;;;1.45;0.45;;;14.80;99.90;;;;;;4972806;28;21875;-77
2023/03/25 13:02:48;;;;;;;0.90;0.40;;;14.70;99.90;;;;;;4984748;28;20592;-76
2023/03/25 13:05:25;;;;;;;2.20;0.57;;;14.40;99.90;;;;;;4991542;28;20230;-75
2023/03/25 13:08:02;;;;;;;1.30;0.63;;;14.00;99.90;;;;;;4979699;28;20214;-75
2023/03/25 13:10:33;;;;;;;1.17;0.60;;;13.80;99.90;;;;;;4985927;28;20643;-75
2023/03/25 13:13:02;;;;;;;2.13;0.77;;;13.50;99.90;;;;;;4977529;28;20298;-76